sensor_id;sensor_type;location;lat;lon;timestamp;pressure;altitude;pressure_sealevel;temperature;humidity
78615;BME280;67937;52.488;20.952;2024-02-28T00:00:30;100598.48;;;8.35;89.42
78615;BME280;67937;52.488;20.952;2024-02-28T00:03:18;100596.00;;;8.35;89.26
78615;BME280;67937;52.488;20.952;2024-02-28T00:05:46;100599.92;;;8.35;89.34
78615;BME280;67937;52.488;20.952;2024-02-28T00:08:15;100601.98;;;8.33;89.60
78615;BME280;67937;52.488;20.952;2024-02-28T00:10:43;100605.13;;;8.33;89.69
78615;BME280;67937;52.488;20.952;2024-02-28T00:13:12;100605.67;;;8.33;89.52
78615;BME280;67937;52.488;20.952;2024-02-28T00:15:40;100603.62;;;8.32;89.74
78615;BME280;67937;52.488;20.952;2024-02-28T00:18:08;100600.02;;;8.33;89.65
78615;BME280;67937;52.488;20.952;2024-02-28T00:20:37;100601.56;;;8.34;89.73
78615;BME280;67937;52.488;20.952;2024-02-28T00:23:05;100607.50;;;8.34;89.91
78615;BME280;67937;52.488;20.952;2024-02-28T00:25:34;100609.62;;;8.32;90.08
78615;BME280;67937;52.488;20.952;2024-02-28T00:28:02;100615.55;;;8.30;90.21
78615;BME280;67937;52.488;20.952;2024-02-28T00:30:30;100617.59;;;8.31;90.01
78615;BME280;67937;52.488;20.952;2024-02-28T00:32:59;100615.56;;;8.32;90.08
78615;BME280;67937;52.488;20.952;2024-02-28T00:35:31;100616.52;;;8.33;89.99
78615;BME280;67937;52.488;20.952;2024-02-28T00:38:00;100613.40;;;8.35;89.91
78615;BME280;67937;52.488;20.952;2024-02-28T00:40:28;100613.30;;;8.37;89.83
78615;BME280;67937;52.488;20.952;2024-02-28T00:42:57;100611.17;;;8.37;89.86
78615;BME280;67937;52.488;20.952;2024-02-28T00:45:25;100608.48;;;8.38;89.81
78615;BME280;67937;52.488;20.952;2024-02-28T00:47:55;100611.99;;;8.38;89.68
78615;BME280;67937;52.488;20.952;2024-02-28T00:50:23;100610.90;;;8.39;89.43
78615;BME280;67937;52.488;20.952;2024-02-28T00:52:51;100607.73;;;8.36;89.38
78615;BME280;67937;52.488;20.952;2024-02-28T00:55:20;100603.46;;;8.34;89.50
78615;BME280;67937;52.488;20.952;2024-02-28T00:57:48;100607.77;;;8.33;89.61
78615;BME280;67937;52.488;20.952;2024-02-28T01:00:16;100610.23;;;8.33;89.86
78615;BME280;67937;52.488;20.952;2024-02-28T01:02:44;100608.67;;;8.33;90.01
78615;BME280;67937;52.488;20.952;2024-02-28T01:05:12;100609.66;;;8.31;90.05
78615;BME280;67937;52.488;20.952;2024-02-28T01:07:41;100612.20;;;8.27;90.17
78615;BME280;67937;52.488;20.952;2024-02-28T01:10:09;100613.70;;;8.26;90.48
78615;BME280;67937;52.488;20.952;2024-02-28T01:12:38;100617.91;;;8.26;90.32
78615;BME280;67937;52.488;20.952;2024-02-28T01:15:06;100621.90;;;8.27;90.08
78615;BME280;67937;52.488;20.952;2024-02-28T01:17:34;100624.29;;;8.25;90.31
78615;BME280;67937;52.488;20.952;2024-02-28T01:20:03;100622.29;;;8.23;90.48
78615;BME280;67937;52.488;20.952;2024-02-28T01:22:31;100622.05;;;8.21;90.81
78615;BME280;67937;52.488;20.952;2024-02-28T01:24:59;100623.38;;;8.23;91.01
78615;BME280;67937;52.488;20.952;2024-02-28T01:27:27;100625.37;;;8.25;91.10
78615;BME280;67937;52.488;20.952;2024-02-28T01:29:56;100615.13;;;8.25;91.05
78615;BME280;67937;52.488;20.952;2024-02-28T01:32:24;100615.61;;;8.26;91.02
78615;BME280;67937;52.488;20.952;2024-02-28T01:34:52;100608.10;;;8.25;90.96
78615;BME280;67937;52.488;20.952;2024-02-28T01:37:21;100612.77;;;8.27;90.97
78615;BME280;67937;52.488;20.952;2024-02-28T01:39:49;100611.52;;;8.27;91.05
78615;BME280;67937;52.488;20.952;2024-02-28T01:42:17;100612.28;;;8.26;91.00
78615;BME280;67937;52.488;20.952;2024-02-28T01:44:47;100614.16;;;8.27;90.90
78615;BME280;67937;52.488;20.952;2024-02-28T01:47:17;100616.11;;;8.29;90.87
78615;BME280;67937;52.488;20.952;2024-02-28T01:49:46;100620.66;;;8.29;90.84
78615;BME280;67937;52.488;20.952;2024-02-28T01:52:15;100623.36;;;8.29;91.04
78615;BME280;67937;52.488;20.952;2024-02-28T01:54:43;100628.29;;;8.28;91.13
78615;BME280;67937;52.488;20.952;2024-02-28T01:57:12;100631.85;;;8.28;91.45
78615;BME280;67937;52.488;20.952;2024-02-28T01:59:41;100629.02;;;8.28;90.85
78615;BME280;67937;52.488;20.952;2024-02-28T02:02:10;100634.78;;;8.29;90.68
78615;BME280;67937;52.488;20.952;2024-02-28T02:04:38;100637.44;;;8.28;90.84
78615;BME280;67937;52.488;20.952;2024-02-28T02:07:06;100641.60;;;8.26;90.83
78615;BME280;67937;52.488;20.952;2024-02-28T02:09:35;100642.12;;;8.29;91.10
78615;BME280;67937;52.488;20.952;2024-02-28T02:12:03;100649.45;;;8.41;91.95
78615;BME280;67937;52.488;20.952;2024-02-28T02:14:31;100654.39;;;8.35;92.90
78615;BME280;67937;52.488;20.952;2024-02-28T02:16:59;100649.73;;;8.28;93.36
78615;BME280;67937;52.488;20.952;2024-02-28T02:19:27;100647.67;;;8.14;93.38
78615;BME280;67937;52.488;20.952;2024-02-28T02:21:58;100640.21;;;8.12;93.42
78615;BME280;67937;52.488;20.952;2024-02-28T02:24:26;100634.73;;;8.16;93.06
78615;BME280;67937;52.488;20.952;2024-02-28T02:26:57;100630.73;;;8.20;92.70
78615;BME280;67937;52.488;20.952;2024-02-28T02:29:25;100629.41;;;8.21;92.57
78615;BME280;67937;52.488;20.952;2024-02-28T02:31:55;100629.59;;;8.19;92.48
78615;BME280;67937;52.488;20.952;2024-02-28T02:34:23;100630.70;;;8.21;92.18
78615;BME280;67937;52.488;20.952;2024-02-28T02:36:51;100630.16;;;8.21;92.21
78615;BME280;67937;52.488;20.952;2024-02-28T02:39:19;100632.21;;;8.22;92.22
78615;BME280;67937;52.488;20.952;2024-02-28T02:41:47;100632.13;;;8.23;92.04
78615;BME280;67937;52.488;20.952;2024-02-28T02:44:15;100632.35;;;8.25;91.97
78615;BME280;67937;52.488;20.952;2024-02-28T02:46:44;100637.48;;;8.28;92.06
78615;BME280;67937;52.488;20.952;2024-02-28T02:49:12;100640.94;;;8.39;92.39
78615;BME280;67937;52.488;20.952;2024-02-28T02:51:40;100643.92;;;8.39;93.31
78615;BME280;67937;52.488;20.952;2024-02-28T02:54:10;100646.33;;;8.24;93.49
78615;BME280;67937;52.488;20.952;2024-02-28T02:56:41;100645.35;;;8.17;93.73
78615;BME280;67937;52.488;20.952;2024-02-28T02:59:10;100643.59;;;8.17;93.88
78615;BME280;67937;52.488;20.952;2024-02-28T03:01:40;100637.88;;;8.18;93.70
78615;BME280;67937;52.488;20.952;2024-02-28T03:04:08;100639.67;;;8.21;93.61
78615;BME280;67937;52.488;20.952;2024-02-28T03:06:36;100642.98;;;8.21;93.43
78615;BME280;67937;52.488;20.952;2024-02-28T03:09:04;100644.74;;;8.21;93.14
78615;BME280;67937;52.488;20.952;2024-02-28T03:11:34;100645.03;;;8.22;93.06
78615;BME280;67937;52.488;20.952;2024-02-28T03:14:02;100641.96;;;8.21;93.16
78615;BME280;67937;52.488;20.952;2024-02-28T03:16:31;100639.73;;;8.22;93.01
78615;BME280;67937;52.488;20.952;2024-02-28T03:18:59;100640.75;;;8.23;92.90
78615;BME280;67937;52.488;20.952;2024-02-28T03:21:27;100642.63;;;8.24;92.90
78615;BME280;67937;52.488;20.952;2024-02-28T03:23:55;100641.20;;;8.28;92.81
78615;BME280;67937;52.488;20.952;2024-02-28T03:26:23;100647.20;;;8.27;92.56
78615;BME280;67937;52.488;20.952;2024-02-28T03:28:52;100646.78;;;8.22;92.79
78615;BME280;67937;52.488;20.952;2024-02-28T03:31:20;100648.84;;;8.23;93.01
78615;BME280;67937;52.488;20.952;2024-02-28T03:33:48;100643.38;;;8.23;93.01
78615;BME280;67937;52.488;20.952;2024-02-28T03:36:16;100637.57;;;8.24;92.79
78615;BME280;67937;52.488;20.952;2024-02-28T03:38:44;100632.55;;;8.25;92.69
78615;BME280;67937;52.488;20.952;2024-02-28T03:41:13;100629.01;;;8.26;92.46
78615;BME280;67937;52.488;20.952;2024-02-28T03:43:41;100621.49;;;8.25;92.37
78615;BME280;67937;52.488;20.952;2024-02-28T03:46:09;100615.69;;;8.25;92.44
78615;BME280;67937;52.488;20.952;2024-02-28T03:48:37;100619.11;;;8.24;92.41
78615;BME280;67937;52.488;20.952;2024-02-28T03:51:05;100617.04;;;8.23;92.58
78615;BME280;67937;52.488;20.952;2024-02-28T03:53:34;100624.83;;;8.25;92.41
78615;BME280;67937;52.488;20.952;2024-02-28T03:56:02;100624.28;;;8.25;92.40
78615;BME280;67937;52.488;20.952;2024-02-28T03:58:30;100628.80;;;8.29;92.82
78615;BME280;67937;52.488;20.952;2024-02-28T04:00:59;100639.44;;;8.33;93.81
78615;BME280;67937;52.488;20.952;2024-02-28T04:03:27;100641.91;;;8.30;95.02
78615;BME280;67937;52.488;20.952;2024-02-28T04:05:55;100640.52;;;8.16;95.55
78615;BME280;67937;52.488;20.952;2024-02-28T04:08:23;100638.41;;;8.02;95.80
78615;BME280;67937;52.488;20.952;2024-02-28T04:10:51;100639.52;;;8.04;95.69
78615;BME280;67937;52.488;20.952;2024-02-28T04:13:20;100638.98;;;8.04;95.65
78615;BME280;67937;52.488;20.952;2024-02-28T04:15:48;100630.30;;;8.00;95.70
78615;BME280;67937;52.488;20.952;2024-02-28T04:18:16;100625.21;;;8.02;95.53
78615;BME280;67937;52.488;20.952;2024-02-28T04:20:44;100617.84;;;8.05;95.22
78615;BME280;67937;52.488;20.952;2024-02-28T04:23:12;100616.20;;;8.06;95.12
78615;BME280;67937;52.488;20.952;2024-02-28T04:25:40;100615.58;;;8.05;95.04
78615;BME280;67937;52.488;20.952;2024-02-28T04:28:09;100619.52;;;8.06;95.20
78615;BME280;67937;52.488;20.952;2024-02-28T04:30:37;100626.16;;;8.07;95.20
78615;BME280;67937;52.488;20.952;2024-02-28T04:33:05;100617.16;;;8.10;94.99
78615;BME280;67937;52.488;20.952;2024-02-28T04:35:33;100617.18;;;8.12;94.79
78615;BME280;67937;52.488;20.952;2024-02-28T04:38:01;100618.43;;;8.15;94.60
78615;BME280;67937;52.488;20.952;2024-02-28T04:40:29;100616.26;;;8.16;94.36
78615;BME280;67937;52.488;20.952;2024-02-28T04:42:57;100616.10;;;8.18;94.25
78615;BME280;67937;52.488;20.952;2024-02-28T04:45:26;100614.53;;;8.18;94.23
78615;BME280;67937;52.488;20.952;2024-02-28T04:47:54;100611.66;;;8.19;94.27
78615;BME280;67937;52.488;20.952;2024-02-28T04:50:23;100611.59;;;8.17;94.37
78615;BME280;67937;52.488;20.952;2024-02-28T04:52:51;100607.53;;;8.15;94.34
78615;BME280;67937;52.488;20.952;2024-02-28T04:55:19;100610.20;;;8.15;94.34
78615;BME280;67937;52.488;20.952;2024-02-28T04:57:48;100611.37;;;8.15;94.31
78615;BME280;67937;52.488;20.952;2024-02-28T05:00:16;100613.21;;;8.17;94.23
78615;BME280;67937;52.488;20.952;2024-02-28T05:02:44;100610.48;;;8.18;94.13
78615;BME280;67937;52.488;20.952;2024-02-28T05:05:12;100612.02;;;8.19;93.96
78615;BME280;67937;52.488;20.952;2024-02-28T05:07:40;100614.61;;;8.19;93.96
78615;BME280;67937;52.488;20.952;2024-02-28T05:10:09;100623.23;;;8.28;94.06
78615;BME280;67937;52.488;20.952;2024-02-28T05:12:38;100631.38;;;8.35;95.13
78615;BME280;67937;52.488;20.952;2024-02-28T05:15:06;100643.41;;;8.23;96.11
78615;BME280;67937;52.488;20.952;2024-02-28T05:17:35;100647.63;;;8.09;96.77
78615;BME280;67937;52.488;20.952;2024-02-28T05:20:03;100645.08;;;7.94;97.20
78615;BME280;67937;52.488;20.952;2024-02-28T05:22:32;100644.23;;;7.82;97.59
78615;BME280;67937;52.488;20.952;2024-02-28T05:25:00;100651.86;;;7.78;97.58
78615;BME280;67937;52.488;20.952;2024-02-28T05:27:28;100656.16;;;7.80;97.47
78615;BME280;67937;52.488;20.952;2024-02-28T05:29:56;100660.70;;;7.83;97.31
78615;BME280;67937;52.488;20.952;2024-02-28T05:32:24;100661.97;;;7.86;97.12
78615;BME280;67937;52.488;20.952;2024-02-28T05:34:52;100662.58;;;7.87;96.99
78615;BME280;67937;52.488;20.952;2024-02-28T05:37:20;100665.15;;;7.91;96.88
78615;BME280;67937;52.488;20.952;2024-02-28T05:39:48;100668.13;;;7.94;96.52
78615;BME280;67937;52.488;20.952;2024-02-28T05:42:17;100673.48;;;7.95;96.28
78615;BME280;67937;52.488;20.952;2024-02-28T05:44:48;100676.46;;;7.98;96.26
78615;BME280;67937;52.488;20.952;2024-02-28T05:47:16;100684.30;;;8.05;96.62
78615;BME280;67937;52.488;20.952;2024-02-28T05:49:45;100688.56;;;8.01;96.76
78615;BME280;67937;52.488;20.952;2024-02-28T05:52:13;100692.67;;;8.00;97.18
78615;BME280;67937;52.488;20.952;2024-02-28T05:54:41;100695.38;;;7.96;97.36
78615;BME280;67937;52.488;20.952;2024-02-28T05:57:09;100693.00;;;7.92;97.72
78615;BME280;67937;52.488;20.952;2024-02-28T05:59:38;100693.80;;;7.93;97.71
78615;BME280;67937;52.488;20.952;2024-02-28T06:02:06;100694.23;;;7.90;97.76
78615;BME280;67937;52.488;20.952;2024-02-28T06:04:34;100690.61;;;7.85;97.80
78615;BME280;67937;52.488;20.952;2024-02-28T06:07:02;100695.69;;;7.83;97.95
78615;BME280;67937;52.488;20.952;2024-02-28T06:09:30;100695.09;;;7.81;97.91
78615;BME280;67937;52.488;20.952;2024-02-28T06:11:59;100699.33;;;7.83;97.99
78615;BME280;67937;52.488;20.952;2024-02-28T06:14:28;100700.75;;;7.87;97.77
78615;BME280;67937;52.488;20.952;2024-02-28T06:16:56;100698.41;;;7.96;97.88
78615;BME280;67937;52.488;20.952;2024-02-28T06:19:24;100705.52;;;8.00;97.73
78615;BME280;67937;52.488;20.952;2024-02-28T06:21:53;100703.70;;;7.95;97.92
78615;BME280;67937;52.488;20.952;2024-02-28T06:24:21;100699.50;;;7.92;98.06
78615;BME280;67937;52.488;20.952;2024-02-28T06:26:49;100698.92;;;7.96;98.12
78615;BME280;67937;52.488;20.952;2024-02-28T06:29:17;100700.98;;;7.99;98.02
78615;BME280;67937;52.488;20.952;2024-02-28T06:31:52;100699.77;;;8.04;97.96
78615;BME280;67937;52.488;20.952;2024-02-28T06:34:22;100704.66;;;8.08;97.79
78615;BME280;67937;52.488;20.952;2024-02-28T06:36:51;100707.16;;;8.12;97.36
78615;BME280;67937;52.488;20.952;2024-02-28T06:39:19;100712.20;;;8.16;97.20
78615;BME280;67937;52.488;20.952;2024-02-28T06:41:47;100711.63;;;8.28;97.02
78615;BME280;67937;52.488;20.952;2024-02-28T06:44:18;100712.81;;;8.29;97.21
78615;BME280;67937;52.488;20.952;2024-02-28T06:46:47;100720.76;;;8.28;97.63
78615;BME280;67937;52.488;20.952;2024-02-28T06:49:15;100720.45;;;8.25;97.89
78615;BME280;67937;52.488;20.952;2024-02-28T06:51:44;100722.67;;;8.26;98.03
78615;BME280;67937;52.488;20.952;2024-02-28T06:54:12;100726.11;;;8.24;98.09
78615;BME280;67937;52.488;20.952;2024-02-28T06:56:40;100722.70;;;8.22;98.17
78615;BME280;67937;52.488;20.952;2024-02-28T06:59:09;100720.86;;;8.18;98.19
78615;BME280;67937;52.488;20.952;2024-02-28T07:01:37;100718.24;;;8.20;98.23
78615;BME280;67937;52.488;20.952;2024-02-28T07:04:05;100721.70;;;8.25;98.09
78615;BME280;67937;52.488;20.952;2024-02-28T07:06:33;100725.99;;;8.29;98.07
78615;BME280;67937;52.488;20.952;2024-02-28T07:09:02;100726.39;;;8.31;97.93
78615;BME280;67937;52.488;20.952;2024-02-28T07:11:30;100726.79;;;8.33;97.90
78615;BME280;67937;52.488;20.952;2024-02-28T07:13:58;100726.59;;;8.39;97.82
78615;BME280;67937;52.488;20.952;2024-02-28T07:16:29;100733.98;;;8.47;97.62
78615;BME280;67937;52.488;20.952;2024-02-28T07:19:03;100730.17;;;8.49;97.50
78615;BME280;67937;52.488;20.952;2024-02-28T07:21:31;100734.17;;;8.50;97.53
78615;BME280;67937;52.488;20.952;2024-02-28T07:24:00;100736.45;;;8.52;97.47
78615;BME280;67937;52.488;20.952;2024-02-28T07:26:29;100738.17;;;8.58;97.51
78615;BME280;67937;52.488;20.952;2024-02-28T07:28:57;100739.67;;;8.62;97.46
78615;BME280;67937;52.488;20.952;2024-02-28T07:31:25;100742.97;;;8.63;97.49
78615;BME280;67937;52.488;20.952;2024-02-28T07:33:54;100736.80;;;8.69;97.52
78615;BME280;67937;52.488;20.952;2024-02-28T07:36:22;100737.85;;;8.74;97.49
78615;BME280;67937;52.488;20.952;2024-02-28T07:38:50;100738.57;;;8.81;97.45
78615;BME280;67937;52.488;20.952;2024-02-28T07:41:19;100738.92;;;8.84;97.44
78615;BME280;67937;52.488;20.952;2024-02-28T07:43:47;100738.33;;;8.93;97.31
78615;BME280;67937;52.488;20.952;2024-02-28T07:46:15;100742.33;;;8.96;97.28
78615;BME280;67937;52.488;20.952;2024-02-28T07:48:43;100742.66;;;9.04;97.03
78615;BME280;67937;52.488;20.952;2024-02-28T07:51:12;100744.05;;;9.05;97.20
78615;BME280;67937;52.488;20.952;2024-02-28T07:53:40;100741.02;;;9.08;97.32
78615;BME280;67937;52.488;20.952;2024-02-28T07:56:15;100745.92;;;9.11;97.41
78615;BME280;67937;52.488;20.952;2024-02-28T07:58:45;100745.74;;;9.19;97.47
78615;BME280;67937;52.488;20.952;2024-02-28T08:01:14;100749.59;;;9.25;97.32
78615;BME280;67937;52.488;20.952;2024-02-28T08:03:43;100753.39;;;9.33;97.30
78615;BME280;67937;52.488;20.952;2024-02-28T08:06:11;100754.45;;;9.36;97.62
78615;BME280;67937;52.488;20.952;2024-02-28T08:08:39;100753.35;;;9.37;97.75
78615;BME280;67937;52.488;20.952;2024-02-28T08:11:08;100757.60;;;9.41;98.03
78615;BME280;67937;52.488;20.952;2024-02-28T08:13:36;100762.12;;;9.45;98.40
78615;BME280;67937;52.488;20.952;2024-02-28T08:16:04;100761.52;;;9.43;98.66
78615;BME280;67937;52.488;20.952;2024-02-28T08:18:35;100768.23;;;9.48;98.98
78615;BME280;67937;52.488;20.952;2024-02-28T08:21:03;100767.91;;;9.53;98.70
78615;BME280;67937;52.488;20.952;2024-02-28T08:23:31;100765.89;;;9.51;98.99
78615;BME280;67937;52.488;20.952;2024-02-28T08:26:00;100765.84;;;9.62;99.12
78615;BME280;67937;52.488;20.952;2024-02-28T08:28:29;100763.85;;;9.68;99.20
78615;BME280;67937;52.488;20.952;2024-02-28T08:30:58;100769.23;;;9.74;99.21
78615;BME280;67937;52.488;20.952;2024-02-28T08:33:26;100769.59;;;9.77;99.52
78615;BME280;67937;52.488;20.952;2024-02-28T08:35:55;100768.17;;;9.82;99.81
78615;BME280;67937;52.488;20.952;2024-02-28T08:38:23;100768.48;;;9.90;100.00
78615;BME280;67937;52.488;20.952;2024-02-28T08:40:52;100762.79;;;9.89;99.96
78615;BME280;67937;52.488;20.952;2024-02-28T08:43:21;100758.19;;;9.94;100.00
78615;BME280;67937;52.488;20.952;2024-02-28T08:45:49;100757.71;;;10.00;100.00
78615;BME280;67937;52.488;20.952;2024-02-28T08:48:18;100762.02;;;10.04;99.99
78615;BME280;67937;52.488;20.952;2024-02-28T08:50:46;100761.83;;;10.07;100.00
78615;BME280;67937;52.488;20.952;2024-02-28T08:53:14;100762.69;;;10.10;100.00
78615;BME280;67937;52.488;20.952;2024-02-28T08:55:42;100761.48;;;10.15;99.99
78615;BME280;67937;52.488;20.952;2024-02-28T08:58:11;100757.52;;;10.18;99.89
78615;BME280;67937;52.488;20.952;2024-02-28T09:00:39;100755.92;;;10.18;99.41
78615;BME280;67937;52.488;20.952;2024-02-28T09:03:08;100754.14;;;10.24;99.47
78615;BME280;67937;52.488;20.952;2024-02-28T09:05:36;100754.54;;;10.23;99.60
78615;BME280;67937;52.488;20.952;2024-02-28T09:08:04;100753.77;;;10.24;99.94
78615;BME280;67937;52.488;20.952;2024-02-28T09:10:33;100757.13;;;10.28;100.00
78615;BME280;67937;52.488;20.952;2024-02-28T09:13:02;100757.14;;;10.34;100.00
78615;BME280;67937;52.488;20.952;2024-02-28T09:15:30;100757.52;;;10.41;99.80
78615;BME280;67937;52.488;20.952;2024-02-28T09:17:58;100758.48;;;10.42;99.46
78615;BME280;67937;52.488;20.952;2024-02-28T09:20:27;100761.00;;;10.42;99.75
78615;BME280;67937;52.488;20.952;2024-02-28T09:22:55;100765.38;;;10.44;99.78
78615;BME280;67937;52.488;20.952;2024-02-28T09:25:24;100765.29;;;10.43;99.76
78615;BME280;67937;52.488;20.952;2024-02-28T09:27:52;100769.55;;;10.43;99.89
78615;BME280;67937;52.488;20.952;2024-02-28T09:30:20;100764.29;;;10.45;99.98
78615;BME280;67937;52.488;20.952;2024-02-28T09:32:49;100760.77;;;10.49;99.99
78615;BME280;67937;52.488;20.952;2024-02-28T09:35:17;100757.95;;;10.52;99.49
78615;BME280;67937;52.488;20.952;2024-02-28T09:37:45;100755.95;;;10.55;99.35
78615;BME280;67937;52.488;20.952;2024-02-28T09:40:13;100761.78;;;10.57;99.67
78615;BME280;67937;52.488;20.952;2024-02-28T09:42:42;100762.02;;;10.66;99.40
78615;BME280;67937;52.488;20.952;2024-02-28T09:45:11;100760.77;;;10.69;99.21
78615;BME280;67937;52.488;20.952;2024-02-28T09:47:40;100766.00;;;10.74;99.43
78615;BME280;67937;52.488;20.952;2024-02-28T09:50:08;100767.63;;;10.76;98.92
78615;BME280;67937;52.488;20.952;2024-02-28T09:52:37;100769.44;;;10.73;98.95
78615;BME280;67937;52.488;20.952;2024-02-28T09:55:05;100771.78;;;10.75;99.10
78615;BME280;67937;52.488;20.952;2024-02-28T09:57:35;100766.02;;;10.74;99.03
78615;BME280;67937;52.488;20.952;2024-02-28T10:00:04;100774.55;;;10.78;99.01
78615;BME280;67937;52.488;20.952;2024-02-28T10:02:37;100778.73;;;10.76;98.74
78615;BME280;67937;52.488;20.952;2024-02-28T10:05:07;100780.20;;;10.73;98.65
78615;BME280;67937;52.488;20.952;2024-02-28T10:07:36;100779.02;;;10.72;98.27
78615;BME280;67937;52.488;20.952;2024-02-28T10:10:05;100781.20;;;10.69;98.52
78615;BME280;67937;52.488;20.952;2024-02-28T10:12:34;100781.32;;;10.65;98.78
78615;BME280;67937;52.488;20.952;2024-02-28T10:15:03;100777.38;;;10.61;99.30
78615;BME280;67937;52.488;20.952;2024-02-28T10:17:31;100778.23;;;10.64;99.23
78615;BME280;67937;52.488;20.952;2024-02-28T10:19:59;100779.91;;;10.63;99.43
78615;BME280;67937;52.488;20.952;2024-02-28T10:22:28;100784.13;;;10.63;99.63
78615;BME280;67937;52.488;20.952;2024-02-28T10:25:01;100788.02;;;10.63;99.41
78615;BME280;67937;52.488;20.952;2024-02-28T10:27:34;100793.19;;;10.60;99.61
78615;BME280;67937;52.488;20.952;2024-02-28T10:30:03;100796.66;;;10.56;99.96
78615;BME280;67937;52.488;20.952;2024-02-28T10:32:32;100798.70;;;10.57;99.98
78615;BME280;67937;52.488;20.952;2024-02-28T10:35:02;100798.70;;;10.57;99.87
78615;BME280;67937;52.488;20.952;2024-02-28T10:37:32;100799.77;;;10.57;99.64
78615;BME280;67937;52.488;20.952;2024-02-28T10:40:02;100801.05;;;10.54;99.75
78615;BME280;67937;52.488;20.952;2024-02-28T10:42:32;100800.44;;;10.50;99.65
78615;BME280;67937;52.488;20.952;2024-02-28T10:45:01;100798.98;;;10.48;99.81
78615;BME280;67937;52.488;20.952;2024-02-28T10:47:30;100800.96;;;10.52;99.64
78615;BME280;67937;52.488;20.952;2024-02-28T10:49:59;100799.31;;;10.51;99.52
78615;BME280;67937;52.488;20.952;2024-02-28T10:52:28;100802.10;;;10.49;99.70
78615;BME280;67937;52.488;20.952;2024-02-28T10:54:59;100805.16;;;10.53;99.03
78615;BME280;67937;52.488;20.952;2024-02-28T10:57:30;100808.02;;;10.45;99.35
78615;BME280;67937;52.488;20.952;2024-02-28T10:59:59;100805.39;;;10.42;99.53
78615;BME280;67937;52.488;20.952;2024-02-28T11:02:27;100806.42;;;10.43;99.18
78615;BME280;67937;52.488;20.952;2024-02-28T11:04:56;100809.39;;;10.40;98.84
78615;BME280;67937;52.488;20.952;2024-02-28T11:07:24;100812.18;;;10.39;98.21
78615;BME280;67937;52.488;20.952;2024-02-28T11:09:56;100813.02;;;10.31;97.99
78615;BME280;67937;52.488;20.952;2024-02-28T11:12:28;100812.35;;;10.31;98.31
78615;BME280;67937;52.488;20.952;2024-02-28T11:14:58;100813.33;;;10.24;98.07
78615;BME280;67937;52.488;20.952;2024-02-28T11:17:27;100819.03;;;10.16;97.83
78615;BME280;67937;52.488;20.952;2024-02-28T11:19:56;100823.02;;;10.15;97.47
78615;BME280;67937;52.488;20.952;2024-02-28T11:22:27;100827.13;;;10.14;96.89
78615;BME280;67937;52.488;20.952;2024-02-28T11:24:56;100829.63;;;10.03;96.69
78615;BME280;67937;52.488;20.952;2024-02-28T11:27:24;100832.50;;;9.92;97.20
78615;BME280;67937;52.488;20.952;2024-02-28T11:29:52;100832.27;;;9.85;97.76
78615;BME280;67937;52.488;20.952;2024-02-28T11:32:20;100836.30;;;9.86;97.59
78615;BME280;67937;52.488;20.952;2024-02-28T11:34:49;100835.00;;;9.79;97.09
78615;BME280;67937;52.488;20.952;2024-02-28T11:37:18;100839.04;;;9.71;97.48
78615;BME280;67937;52.488;20.952;2024-02-28T11:39:47;100838.67;;;9.72;97.61
78615;BME280;67937;52.488;20.952;2024-02-28T11:42:16;100840.42;;;9.72;97.81
78615;BME280;67937;52.488;20.952;2024-02-28T11:44:53;100844.83;;;9.77;96.88
78615;BME280;67937;52.488;20.952;2024-02-28T11:47:22;100851.16;;;9.69;97.14
78615;BME280;67937;52.488;20.952;2024-02-28T11:49:50;100847.67;;;9.69;97.21
78615;BME280;67937;52.488;20.952;2024-02-28T11:52:19;100851.14;;;9.59;97.43
78615;BME280;67937;52.488;20.952;2024-02-28T11:54:47;100851.13;;;9.60;97.42
78615;BME280;67937;52.488;20.952;2024-02-28T11:57:15;100850.88;;;9.58;97.60
78615;BME280;67937;52.488;20.952;2024-02-28T11:59:44;100850.10;;;9.51;97.92
78615;BME280;67937;52.488;20.952;2024-02-28T12:02:14;100852.42;;;9.56;97.75
78615;BME280;67937;52.488;20.952;2024-02-28T12:04:42;100850.62;;;9.51;97.46
78615;BME280;67937;52.488;20.952;2024-02-28T12:07:11;100854.11;;;9.49;97.79
78615;BME280;67937;52.488;20.952;2024-02-28T12:09:40;100858.79;;;9.45;97.50
78615;BME280;67937;52.488;20.952;2024-02-28T12:12:12;100858.80;;;9.42;97.76
78615;BME280;67937;52.488;20.952;2024-02-28T12:14:40;100858.23;;;9.43;97.72
78615;BME280;67937;52.488;20.952;2024-02-28T12:17:09;100859.91;;;9.47;97.20
78615;BME280;67937;52.488;20.952;2024-02-28T12:19:38;100856.35;;;9.40;97.22
78615;BME280;67937;52.488;20.952;2024-02-28T12:22:07;100862.34;;;9.45;97.21
78615;BME280;67937;52.488;20.952;2024-02-28T12:24:36;100860.05;;;9.39;97.45
78615;BME280;67937;52.488;20.952;2024-02-28T12:27:04;100856.30;;;9.35;97.78
78615;BME280;67937;52.488;20.952;2024-02-28T12:29:32;100857.73;;;9.30;98.10
78615;BME280;67937;52.488;20.952;2024-02-28T12:32:00;100856.31;;;9.35;97.95
78615;BME280;67937;52.488;20.952;2024-02-28T12:34:29;100863.52;;;9.27;98.27
78615;BME280;67937;52.488;20.952;2024-02-28T12:36:57;100863.09;;;9.31;98.20
78615;BME280;67937;52.488;20.952;2024-02-28T12:39:26;100866.36;;;9.27;98.40
78615;BME280;67937;52.488;20.952;2024-02-28T12:41:54;100867.93;;;9.24;98.74
78615;BME280;67937;52.488;20.952;2024-02-28T12:44:23;100869.18;;;9.27;98.93
78615;BME280;67937;52.488;20.952;2024-02-28T12:46:51;100865.98;;;9.30;98.42
78615;BME280;67937;52.488;20.952;2024-02-28T12:49:19;100863.52;;;9.27;98.61
78615;BME280;67937;52.488;20.952;2024-02-28T12:51:47;100862.10;;;9.27;98.51
78615;BME280;67937;52.488;20.952;2024-02-28T12:54:16;100862.16;;;9.21;98.54